createdAt,value
2018-11-06T00:00:08.804Z,19.46
2018-11-06T00:01:08.866Z,19.44
2018-11-06T00:02:08.808Z,19.44
2018-11-06T00:03:08.786Z,19.44
2018-11-06T00:04:08.660Z,19.45
2018-11-06T00:05:08.768Z,19.42
2018-11-06T00:06:08.637Z,19.43
2018-11-06T00:07:08.731Z,19.42
2018-11-06T00:08:09.007Z,19.43
2018-11-06T00:09:09.111Z,19.43
2018-11-06T00:10:08.986Z,19.4
2018-11-06T00:11:08.722Z,19.43
2018-11-06T00:12:09.044Z,19.45
2018-11-06T00:13:08.974Z,19.44
2018-11-06T00:14:08.744Z,19.43
2018-11-06T00:15:08.925Z,19.44
2018-11-06T00:16:08.858Z,19.41
2018-11-06T00:17:08.839Z,19.43
2018-11-06T00:18:08.977Z,19.4
2018-11-06T00:19:08.863Z,19.42
2018-11-06T00:20:08.721Z,19.42
2018-11-06T00:21:08.819Z,19.42
2018-11-06T00:22:08.683Z,19.4
2018-11-06T00:23:09.123Z,19.43
2018-11-06T00:24:08.859Z,19.41
2018-11-06T00:25:08.830Z,19.4
2018-11-06T00:26:08.859Z,19.41
2018-11-06T00:27:08.791Z,19.43
2018-11-06T00:28:09.163Z,19.4
2018-11-06T00:29:08.961Z,19.43
2018-11-06T00:30:08.790Z,19.42
2018-11-06T00:31:08.669Z,19.4
2018-11-06T00:32:08.857Z,19.41
2018-11-06T00:33:09.814Z,19.4
2018-11-06T00:34:09.665Z,19.39
2018-11-06T00:35:08.927Z,19.4
2018-11-06T00:36:08.801Z,19.41
2018-11-06T00:37:08.821Z,19.41
2018-11-06T00:38:08.765Z,19.4
2018-11-06T00:39:09.037Z,19.39
2018-11-06T00:40:08.708Z,19.38
2018-11-06T00:41:09.038Z,19.4
2018-11-06T00:42:08.882Z,19.38
2018-11-06T00:43:08.719Z,19.39
2018-11-06T00:44:09.119Z,19.39
2018-11-06T00:45:08.713Z,19.39
2018-11-06T00:46:08.814Z,19.38
2018-11-06T00:47:08.733Z,19.38
2018-11-06T00:48:08.834Z,19.39
2018-11-06T00:49:08.842Z,19.4
2018-11-06T00:50:08.705Z,19.38
2018-11-06T00:51:08.841Z,19.37
2018-11-06T00:52:08.830Z,19.39
2018-11-06T00:53:08.820Z,19.39
2018-11-06T00:54:08.772Z,19.39
2018-11-06T00:55:08.859Z,19.38
2018-11-06T00:56:08.747Z,19.38
2018-11-06T00:57:09.069Z,19.4
2018-11-06T00:58:08.750Z,19.36
2018-11-06T00:59:09.320Z,19.38
2018-11-06T01:00:09.271Z,19.37
2018-11-06T01:01:08.684Z,19.37
2018-11-06T01:02:08.916Z,19.39
2018-11-06T01:03:08.978Z,19.37
2018-11-06T01:04:08.770Z,19.39
2018-11-06T01:05:08.864Z,19.37
2018-11-06T01:06:08.753Z,19.37
2018-11-06T01:07:08.655Z,19.37
2018-11-06T01:08:08.692Z,19.36
2018-11-06T01:09:08.874Z,19.36
2018-11-06T01:10:08.716Z,19.36
2018-11-06T01:11:09.051Z,19.36
2018-11-06T01:12:08.723Z,19.36
2018-11-06T01:13:09.077Z,19.36
2018-11-06T01:14:08.974Z,19.36
2018-11-06T01:15:08.841Z,19.35
2018-11-06T01:16:09.098Z,19.36
2018-11-06T01:17:08.814Z,19.36
2018-11-06T01:18:09.109Z,19.33
2018-11-06T01:19:08.722Z,19.33
2018-11-06T01:20:08.821Z,19.33
2018-11-06T01:21:08.653Z,19.35
2018-11-06T01:22:08.860Z,19.35
2018-11-06T01:23:08.770Z,19.35
2018-11-06T01:24:09.045Z,19.33
2018-11-06T01:25:08.938Z,19.33
2018-11-06T01:26:08.697Z,19.32
2018-11-06T01:27:08.901Z,19.32
2018-11-06T01:28:08.692Z,19.35
2018-11-06T01:29:08.864Z,19.33
2018-11-06T01:30:08.888Z,19.32
2018-11-06T01:31:09.026Z,19.32
2018-11-06T01:32:09.026Z,19.32
2018-11-06T01:33:08.841Z,19.32
2018-11-06T01:34:08.861Z,19.32
2018-11-06T01:35:08.766Z,19.35
2018-11-06T01:36:08.870Z,19.33
2018-11-06T01:37:08.640Z,19.33
2018-11-06T01:38:08.848Z,19.32
2018-11-06T01:39:08.952Z,19.32
2018-11-06T01:40:08.725Z,19.32
2018-11-06T01:41:08.600Z,19.32
2018-11-06T01:42:08.711Z,19.31
2018-11-06T01:43:08.798Z,19.32
2018-11-06T01:44:08.646Z,19.31
2018-11-06T01:45:08.816Z,19.32
2018-11-06T01:46:08.782Z,19.29
2018-11-06T01:47:09.103Z,19.32
2018-11-06T01:48:08.632Z,19.32
2018-11-06T01:49:08.783Z,19.32
2018-11-06T01:50:08.712Z,19.3
2018-11-06T01:51:08.723Z,19.32
2018-11-06T01:52:08.881Z,19.3
2018-11-06T01:53:08.754Z,19.32
2018-11-06T01:54:08.865Z,19.3
2018-11-06T01:55:08.635Z,19.32
2018-11-06T01:56:08.832Z,19.32
2018-11-06T01:57:08.614Z,19.3
2018-11-06T01:58:08.719Z,19.31
2018-11-06T01:59:08.700Z,19.31
2018-11-06T02:00:09.009Z,19.3
2018-11-06T02:01:08.789Z,19.3
2018-11-06T02:02:08.831Z,19.3
2018-11-06T02:03:09.017Z,19.3
2018-11-06T02:04:08.885Z,19.31
2018-11-06T02:05:08.815Z,19.29
2018-11-06T02:06:08.843Z,19.31
2018-11-06T02:07:08.779Z,19.3
2018-11-06T02:08:08.854Z,19.3
2018-11-06T02:09:08.814Z,19.3
2018-11-06T02:10:08.903Z,19.29
2018-11-06T02:11:08.763Z,19.29
2018-11-06T02:12:08.868Z,19.3
2018-11-06T02:13:08.740Z,19.29
2018-11-06T02:14:08.849Z,19.28
2018-11-06T02:15:08.612Z,19.3
2018-11-06T02:16:08.900Z,19.28
2018-11-06T02:17:08.817Z,19.3
2018-11-06T02:18:08.702Z,19.28
2018-11-06T02:19:08.774Z,19.29
2018-11-06T02:20:08.789Z,19.28
2018-11-06T02:21:08.862Z,19.29
2018-11-06T02:22:08.696Z,19.3
2018-11-06T02:23:08.888Z,19.29
2018-11-06T02:24:08.700Z,19.3
2018-11-06T02:25:08.745Z,19.29
2018-11-06T02:26:09.037Z,19.29
2018-11-06T02:27:08.741Z,19.27
2018-11-06T02:28:08.780Z,19.29
2018-11-06T02:29:09.011Z,19.29
2018-11-06T02:30:08.711Z,19.29
2018-11-06T02:31:08.806Z,19.29
2018-11-06T02:32:09.244Z,19.28
2018-11-06T02:33:08.801Z,19.26
2018-11-06T02:34:08.774Z,19.29
2018-11-06T02:35:09.189Z,19.28
2018-11-06T02:36:08.855Z,19.29
2018-11-06T02:37:08.734Z,19.28
2018-11-06T02:38:09.057Z,19.26
2018-11-06T02:39:08.776Z,19.27
2018-11-06T02:40:08.775Z,19.27
2018-11-06T02:41:08.761Z,19.25
2018-11-06T02:42:09.085Z,19.27
2018-11-06T02:43:09.159Z,19.24
2018-11-06T02:44:08.743Z,19.27
2018-11-06T02:45:08.630Z,19.28
2018-11-06T02:46:09.009Z,19.25
2018-11-06T02:47:08.833Z,19.26
2018-11-06T02:48:08.842Z,19.25
2018-11-06T02:49:08.553Z,19.27
2018-11-06T02:50:08.953Z,19.25
2018-11-06T02:51:08.882Z,19.25
2018-11-06T02:52:08.818Z,19.25
2018-11-06T02:53:08.965Z,19.27
2018-11-06T02:54:09.087Z,19.26
2018-11-06T02:55:08.697Z,19.27
2018-11-06T02:56:08.892Z,19.27
2018-11-06T02:57:08.704Z,19.28
2018-11-06T02:58:08.916Z,19.27
2018-11-06T02:59:08.733Z,19.25
2018-11-06T03:00:09.407Z,19.26
2018-11-06T03:01:08.618Z,19.26
2018-11-06T03:02:08.684Z,19.27
2018-11-06T03:03:08.935Z,19.26
2018-11-06T03:04:08.742Z,19.26
2018-11-06T03:05:08.745Z,19.25
2018-11-06T03:06:08.882Z,19.25
2018-11-06T03:07:08.784Z,19.26
2018-11-06T03:08:08.648Z,19.25
2018-11-06T03:09:09.005Z,19.24
2018-11-06T03:10:09.037Z,19.28
2018-11-06T03:11:09.225Z,19.25
2018-11-06T03:12:08.804Z,19.25
2018-11-06T03:13:08.697Z,19.24
2018-11-06T03:14:08.833Z,19.26
2018-11-06T03:15:08.637Z,19.25
2018-11-06T03:16:08.735Z,19.24
2018-11-06T03:17:08.594Z,19.26
2018-11-06T03:18:08.798Z,19.24
2018-11-06T03:19:08.584Z,19.25
2018-11-06T03:20:08.749Z,19.25
2018-11-06T03:21:08.918Z,19.24
2018-11-06T03:22:08.666Z,19.25
2018-11-06T03:23:08.767Z,19.24
2018-11-06T03:24:08.622Z,19.22
2018-11-06T03:25:08.705Z,19.24
2018-11-06T03:26:08.672Z,19.23
2018-11-06T03:27:09.958Z,19.25
2018-11-06T03:28:08.805Z,19.23
2018-11-06T03:29:08.679Z,19.25
2018-11-06T03:30:08.967Z,19.23
2018-11-06T03:31:08.683Z,19.22
2018-11-06T03:32:08.771Z,19.25
2018-11-06T03:33:08.642Z,19.24
2018-11-06T03:34:08.905Z,19.23
2018-11-06T03:35:08.650Z,19.23
2018-11-06T03:36:08.842Z,19.23
2018-11-06T03:37:08.914Z,19.21
2018-11-06T03:38:08.753Z,19.23
2018-11-06T03:39:08.781Z,19.24
2018-11-06T03:40:08.707Z,19.21
2018-11-06T03:41:08.762Z,19.22
2018-11-06T03:42:09.116Z,19.2
2018-11-06T03:43:08.807Z,19.2
2018-11-06T03:44:09.058Z,19.21
2018-11-06T03:45:08.841Z,19.21
2018-11-06T03:46:08.774Z,19.21
2018-11-06T03:47:08.674Z,19.23
2018-11-06T03:48:08.951Z,19.2
2018-11-06T03:49:08.518Z,19.21
2018-11-06T03:50:08.960Z,19.22
2018-11-06T03:51:08.562Z,19.21
2018-11-06T03:52:08.660Z,19.22
2018-11-06T03:53:08.777Z,19.21
2018-11-06T03:54:08.705Z,19.21
2018-11-06T03:55:08.712Z,19.22
2018-11-06T03:56:08.825Z,19.21
2018-11-06T03:57:08.962Z,19.17
2018-11-06T03:58:08.906Z,19.22
2018-11-06T03:59:08.883Z,19.21
2018-11-06T04:00:09.048Z,19.21
2018-11-06T04:01:08.667Z,19.23
2018-11-06T04:02:08.715Z,19.2
2018-11-06T04:03:08.747Z,19.22
2018-11-06T04:04:08.801Z,19.22
2018-11-06T04:05:08.668Z,19.21
2018-11-06T04:06:08.729Z,19.2
2018-11-06T04:07:09.114Z,19.21
2018-11-06T04:08:08.792Z,19.21
2018-11-06T04:09:08.740Z,19.21
2018-11-06T04:10:08.949Z,19.21
2018-11-06T04:11:08.769Z,19.21
2018-11-06T04:12:08.946Z,19.21
2018-11-06T04:13:08.781Z,19.21
2018-11-06T04:14:08.854Z,19.21
2018-11-06T04:15:08.652Z,19.21
2018-11-06T04:16:08.765Z,19.18
2018-11-06T04:17:09.005Z,19.2
2018-11-06T04:18:08.786Z,19.18
2018-11-06T04:19:09.103Z,19.2
2018-11-06T04:20:08.886Z,19.18
2018-11-06T04:21:08.658Z,19.2
2018-11-06T04:22:08.696Z,19.17
2018-11-06T04:23:11.149Z,19.2
2018-11-06T04:24:08.739Z,19.18
2018-11-06T04:25:08.792Z,19.2
2018-11-06T04:26:08.670Z,19.2
2018-11-06T04:27:08.836Z,19.17
2018-11-06T04:28:08.943Z,19.2
2018-11-06T04:29:08.701Z,19.2
2018-11-06T04:30:08.646Z,19.17
2018-11-06T04:31:08.613Z,19.17
2018-11-06T04:32:08.881Z,19.17
2018-11-06T04:33:08.669Z,19.17
2018-11-06T04:34:08.651Z,19.18
2018-11-06T04:35:08.574Z,19.18
2018-11-06T04:36:08.747Z,19.17
2018-11-06T04:37:08.776Z,19.17
2018-11-06T04:38:08.697Z,19.17
2018-11-06T04:39:08.802Z,19.17
2018-11-06T04:40:08.644Z,19.16
2018-11-06T04:41:08.724Z,19.17
2018-11-06T04:42:08.572Z,19.16
2018-11-06T04:43:08.748Z,19.17
2018-11-06T04:44:08.789Z,19.16
2018-11-06T04:45:08.665Z,19.17
2018-11-06T04:46:09.297Z,19.16
2018-11-06T04:47:08.662Z,19.17
2018-11-06T04:48:08.744Z,19.16
2018-11-06T04:49:08.709Z,19.16
2018-11-06T04:50:08.722Z,19.17
2018-11-06T04:51:08.656Z,19.17
2018-11-06T04:52:08.643Z,19.16
2018-11-06T04:53:08.783Z,19.17
2018-11-06T04:54:09.032Z,19.17
2018-11-06T04:55:08.857Z,19.16
2018-11-06T04:56:08.640Z,19.16
2018-11-06T04:57:08.701Z,19.16
2018-11-06T04:58:08.730Z,19.16
2018-11-06T04:59:08.656Z,19.14
2018-11-06T05:00:08.618Z,19.15
2018-11-06T05:01:08.730Z,19.17
2018-11-06T05:02:09.594Z,19.18
2018-11-06T05:03:08.673Z,19.17
2018-11-06T05:04:08.723Z,19.15
2018-11-06T05:05:08.716Z,19.17
2018-11-06T05:06:08.637Z,19.16
2018-11-06T05:07:08.734Z,19.15
2018-11-06T05:08:08.641Z,19.16
2018-11-06T05:09:09.330Z,19.16
2018-11-06T05:10:08.770Z,19.13
2018-11-06T05:11:09.240Z,19.14
2018-11-06T05:12:08.862Z,19.15
2018-11-06T05:13:08.767Z,19.15
2018-11-06T05:14:09.175Z,19.16
2018-11-06T05:15:08.654Z,19.15
2018-11-06T05:16:08.896Z,19.13
2018-11-06T05:17:08.800Z,19.15
2018-11-06T05:18:09.072Z,19.15
2018-11-06T05:19:08.771Z,19.14
2018-11-06T05:20:08.860Z,19.15
2018-11-06T05:21:09.015Z,19.13
2018-11-06T05:22:08.792Z,19.14
2018-11-06T05:23:08.736Z,19.15
2018-11-06T05:24:08.785Z,19.13
2018-11-06T05:25:09.009Z,19.14
2018-11-06T05:26:08.662Z,19.13
2018-11-06T05:27:08.908Z,19.14
2018-11-06T05:28:09.027Z,19.14
2018-11-06T05:29:08.768Z,19.14
2018-11-06T05:30:08.678Z,19.13
2018-11-06T05:31:08.995Z,19.15
2018-11-06T05:32:09.047Z,19.14
2018-11-06T05:33:08.908Z,19.13
2018-11-06T05:34:08.814Z,19.13
2018-11-06T05:35:08.540Z,19.12
2018-11-06T05:36:08.686Z,19.14
2018-11-06T05:37:08.838Z,19.14
2018-11-06T05:38:09.251Z,19.14
2018-11-06T05:39:09.473Z,19.13
2018-11-06T05:40:09.005Z,19.14
2018-11-06T05:41:08.743Z,19.13
2018-11-06T05:42:08.958Z,19.13
2018-11-06T05:43:08.963Z,19.15
2018-11-06T05:44:09.814Z,19.14
2018-11-06T05:45:08.650Z,19.16
2018-11-06T05:46:08.612Z,19.16
2018-11-06T05:47:08.721Z,19.14
2018-11-06T05:48:08.661Z,19.16
2018-11-06T05:49:08.986Z,19.16
2018-11-06T05:50:08.753Z,19.16
2018-11-06T05:51:08.589Z,19.14
2018-11-06T05:52:08.882Z,19.14
2018-11-06T05:53:09.239Z,19.14
2018-11-06T05:54:08.683Z,19.13
2018-11-06T05:55:08.704Z,19.14
2018-11-06T05:56:08.546Z,19.14
2018-11-06T05:57:08.705Z,19.15
2018-11-06T05:58:08.883Z,19.14
2018-11-06T05:59:08.629Z,19.16
2018-11-06T06:00:08.892Z,19.15
2018-11-06T06:01:08.813Z,19.14
2018-11-06T06:02:09.102Z,19.15
2018-11-06T06:03:08.814Z,19.16
2018-11-06T06:04:09.173Z,19.15
2018-11-06T06:05:08.677Z,19.14
2018-11-06T06:06:08.812Z,19.14
2018-11-06T06:07:08.634Z,19.13
2018-11-06T06:08:08.680Z,19.13
2018-11-06T06:09:09.072Z,19.14
2018-11-06T06:10:08.588Z,19.14
2018-11-06T06:11:09.731Z,19.16
2018-11-06T06:12:08.877Z,19.15
2018-11-06T06:13:08.731Z,19.15
2018-11-06T06:14:08.838Z,19.14
2018-11-06T06:15:08.895Z,19.15
2018-11-06T06:16:08.473Z,19.15
2018-11-06T06:17:09.005Z,19.14
2018-11-06T06:18:08.931Z,19.14
2018-11-06T06:19:08.934Z,19.13
2018-11-06T06:20:09.026Z,19.15
2018-11-06T06:21:08.600Z,19.15
2018-11-06T06:22:08.731Z,19.15
2018-11-06T06:23:08.755Z,19.13
2018-11-06T06:24:09.047Z,19.14
2018-11-06T06:25:08.742Z,19.16
2018-11-06T06:26:08.656Z,19.13
2018-11-06T06:27:08.670Z,19.13
2018-11-06T06:28:08.613Z,19.13
2018-11-06T06:29:08.696Z,19.15
2018-11-06T06:30:08.624Z,19.14
2018-11-06T06:31:08.668Z,19.12
2018-11-06T06:32:08.742Z,19.15
2018-11-06T06:33:08.667Z,19.15
2018-11-06T06:34:08.657Z,19.14
2018-11-06T06:35:09.445Z,19.15
2018-11-06T06:36:08.638Z,19.14
2018-11-06T06:37:08.493Z,19.15
2018-11-06T06:38:08.597Z,19.15
2018-11-06T06:39:08.697Z,19.12
2018-11-06T06:40:09.435Z,19.12
2018-11-06T06:41:08.784Z,19.13
2018-11-06T06:42:08.527Z,19.13
2018-11-06T06:43:08.645Z,19.14
2018-11-06T06:44:08.515Z,19.14
2018-11-06T06:45:08.688Z,19.12
2018-11-06T06:46:08.999Z,19.12
2018-11-06T06:47:08.541Z,19.15
2018-11-06T06:48:08.776Z,19.13
2018-11-06T06:49:08.696Z,19.13
2018-11-06T06:50:08.769Z,19.13
2018-11-06T06:51:08.728Z,19.13
2018-11-06T06:52:08.877Z,19.13
2018-11-06T06:53:08.799Z,19.12
2018-11-06T06:54:10.182Z,19.14
2018-11-06T06:55:09.736Z,19.13
2018-11-06T06:56:08.774Z,19.15
2018-11-06T06:57:08.686Z,19.14
2018-11-06T06:58:08.505Z,19.13
2018-11-06T06:59:08.616Z,19.14
2018-11-06T07:00:08.718Z,19.14
2018-11-06T07:01:08.809Z,19.12
2018-11-06T07:02:08.646Z,19.14
2018-11-06T07:03:08.416Z,19.13
2018-11-06T07:04:08.613Z,19.12
2018-11-06T07:05:08.760Z,19.12
2018-11-06T07:06:08.977Z,19.12
2018-11-06T07:07:09.083Z,19.11
2018-11-06T07:08:08.688Z,19.13
2018-11-06T07:09:08.668Z,19.12
2018-11-06T07:10:08.628Z,19.12
2018-11-06T07:11:08.876Z,19.13
2018-11-06T07:12:08.876Z,19.12
2018-11-06T07:13:09.990Z,19.13
2018-11-06T07:14:08.658Z,19.13
2018-11-06T07:15:08.828Z,19.13
2018-11-06T07:16:08.903Z,19.12
2018-11-06T07:17:08.533Z,19.12
2018-11-06T07:18:08.817Z,19.1
2018-11-06T07:19:08.650Z,19.13
2018-11-06T07:20:08.573Z,19.13
2018-11-06T07:21:08.738Z,19.12
2018-11-06T07:22:08.736Z,19.13
2018-11-06T07:23:08.982Z,19.12
2018-11-06T07:24:08.486Z,19.15
2018-11-06T07:25:08.689Z,19.13
2018-11-06T07:26:08.804Z,19.16
2018-11-06T07:27:08.930Z,19.11
2018-11-06T07:28:09.044Z,19.12
2018-11-06T07:29:08.556Z,19.13
2018-11-06T07:30:08.646Z,19.14
2018-11-06T07:31:08.491Z,19.13
2018-11-06T07:32:08.672Z,19.12
2018-11-06T07:33:08.956Z,19.12
2018-11-06T07:34:08.615Z,19.12
2018-11-06T07:35:09.979Z,19.12
2018-11-06T07:36:08.531Z,19.11
2018-11-06T07:37:08.777Z,19.11
2018-11-06T07:38:08.623Z,19.12
2018-11-06T07:39:08.881Z,19.09
2018-11-06T07:40:08.542Z,19.1
2018-11-06T07:41:10.037Z,19.12
2018-11-06T07:42:08.792Z,19.09
2018-11-06T07:43:08.963Z,19.14
2018-11-06T07:44:08.928Z,19.12
2018-11-06T07:45:08.705Z,19.09
2018-11-06T07:46:09.456Z,19.11
2018-11-06T07:47:08.579Z,19.13
2018-11-06T07:48:08.551Z,19.11
2018-11-06T07:49:08.716Z,19.1
2018-11-06T07:50:08.922Z,19.13
2018-11-06T07:51:08.726Z,19.12
2018-11-06T07:52:08.733Z,19.12
2018-11-06T07:53:08.669Z,19.12
2018-11-06T07:54:08.813Z,19.12
2018-11-06T07:55:08.640Z,19.15
2018-11-06T07:56:10.103Z,19.11
2018-11-06T07:57:08.485Z,19.12
2018-11-06T07:58:08.631Z,19.1
2018-11-06T07:59:09.015Z,19.11
2018-11-06T08:00:08.785Z,19.12
2018-11-06T08:01:08.634Z,19.11
2018-11-06T08:02:08.511Z,19.1
2018-11-06T08:03:08.647Z,19.11
2018-11-06T08:04:08.814Z,19.11
2018-11-06T08:05:08.655Z,19.09
2018-11-06T08:06:08.774Z,19.12
2018-11-06T08:07:08.613Z,19.12
2018-11-06T08:08:08.760Z,19.11
2018-11-06T08:09:08.790Z,19.11
2018-11-06T08:10:08.665Z,19.12
2018-11-06T08:11:08.709Z,19.12
2018-11-06T08:12:08.666Z,19.12
2018-11-06T08:13:08.414Z,19.11
2018-11-06T08:14:08.642Z,19.11
2018-11-06T08:15:09.504Z,19.1
2018-11-06T08:16:08.446Z,19.1
2018-11-06T08:17:08.642Z,19.12
2018-11-06T08:18:08.508Z,19.09
2018-11-06T08:19:08.599Z,19.11
2018-11-06T08:20:08.669Z,19.11
2018-11-06T08:21:08.569Z,19.13
2018-11-06T08:22:08.409Z,19.11
2018-11-06T08:23:08.545Z,19.1
2018-11-06T08:24:08.710Z,19.1
2018-11-06T08:25:08.807Z,19.1
2018-11-06T08:26:08.808Z,19.1
2018-11-06T08:27:08.705Z,19.09
2018-11-06T08:28:08.864Z,19.08
2018-11-06T08:29:09.244Z,19.1
2018-11-06T08:30:08.914Z,19.08
2018-11-06T08:31:10.526Z,19.06
2018-11-06T08:32:12.136Z,19.08
2018-11-06T08:33:08.767Z,19.1
2018-11-06T08:34:08.443Z,19.1
2018-11-06T08:35:08.863Z,19.09
2018-11-06T08:36:08.650Z,19.09
2018-11-06T08:37:10.003Z,19.1
2018-11-06T08:38:08.684Z,19.1
2018-11-06T08:39:08.903Z,19.08
2018-11-06T08:40:08.657Z,19.08
2018-11-06T08:41:08.616Z,19.08
2018-11-06T08:42:08.696Z,19.08
2018-11-06T08:43:08.451Z,19.09
2018-11-06T08:44:08.782Z,19.1
2018-11-06T08:45:08.752Z,19.08
2018-11-06T08:46:08.982Z,19.08
2018-11-06T08:47:08.578Z,19.08
2018-11-06T08:48:09.249Z,19.09
2018-11-06T08:49:08.760Z,19.08
2018-11-06T08:50:08.912Z,19.09
2018-11-06T08:51:08.765Z,19.09
2018-11-06T08:52:08.695Z,19.09
2018-11-06T08:53:08.494Z,19.06
2018-11-06T08:54:08.794Z,19.08
2018-11-06T08:55:08.743Z,19.09
2018-11-06T08:56:08.566Z,19.08
2018-11-06T08:57:08.757Z,19.09
2018-11-06T08:58:08.764Z,19.08
2018-11-06T08:59:09.010Z,19.09
2018-11-06T09:00:08.629Z,19.09
2018-11-06T09:01:08.700Z,19.09
2018-11-06T09:02:08.753Z,19.07
2018-11-06T09:03:08.568Z,19.06
2018-11-06T09:04:08.649Z,19.06
2018-11-06T09:05:08.803Z,19.07
2018-11-06T09:06:08.948Z,19.07
2018-11-06T09:07:08.518Z,19.06
2018-11-06T09:08:08.606Z,19.06
2018-11-06T09:09:08.798Z,19.05
2018-11-06T09:10:09.092Z,19.07
2018-11-06T09:11:08.477Z,19.05
2018-11-06T09:12:08.675Z,19.05
2018-11-06T09:13:08.717Z,19.09
2018-11-06T09:14:08.583Z,19.05
2018-11-06T09:15:08.732Z,19.07
2018-11-06T09:16:08.485Z,19.07
2018-11-06T09:17:09.877Z,19.06
2018-11-06T09:18:08.764Z,19.07
2018-11-06T09:19:08.555Z,19.08
2018-11-06T09:20:08.680Z,19.06
2018-11-06T09:21:08.606Z,19.05
2018-11-06T09:22:09.126Z,19.06
2018-11-06T09:23:08.437Z,19.07
2018-11-06T09:24:08.902Z,19.06
2018-11-06T09:25:08.848Z,19.06
2018-11-06T09:26:08.839Z,19.06
2018-11-06T09:27:08.721Z,19.06
2018-11-06T09:28:09.025Z,19.05
2018-11-06T09:29:08.914Z,19.06
2018-11-06T09:30:08.381Z,19.05
2018-11-06T09:31:10.123Z,19.05
2018-11-06T09:32:08.846Z,19.07
2018-11-06T09:33:08.678Z,19.05
2018-11-06T09:34:08.738Z,19.05
2018-11-06T09:35:09.444Z,19.05
2018-11-06T09:36:08.615Z,19.05
2018-11-06T09:37:08.676Z,19.03
2018-11-06T09:38:08.636Z,19.03
2018-11-06T09:39:08.575Z,19.03
2018-11-06T09:40:08.557Z,19.03
2018-11-06T09:41:08.578Z,19.05
2018-11-06T09:42:08.583Z,19.03
2018-11-06T09:43:08.653Z,19.05
2018-11-06T09:44:08.458Z,19.05
2018-11-06T09:45:09.677Z,19.03
2018-11-06T09:46:08.501Z,19.05
2018-11-06T09:47:08.645Z,19.03
2018-11-06T09:48:08.380Z,19
2018-11-06T09:49:08.603Z,19.03
2018-11-06T09:50:08.623Z,19.02
2018-11-06T09:51:08.607Z,19.02
2018-11-06T09:52:09.953Z,19.01
2018-11-06T09:53:08.475Z,19.02
2018-11-06T09:54:08.647Z,19.02
2018-11-06T09:55:08.921Z,19.03
2018-11-06T09:56:08.580Z,19.02
2018-11-06T09:57:08.628Z,19.06
2018-11-06T09:58:08.457Z,19.05
2018-11-06T09:59:09.113Z,19.05
2018-11-06T10:00:08.886Z,19.03
2018-11-06T10:01:09.404Z,19.05
2018-11-06T10:02:08.481Z,19.06
2018-11-06T10:03:08.517Z,19.03
2018-11-06T10:04:08.738Z,19.03
2018-11-06T10:05:08.712Z,19.05
2018-11-06T10:06:09.626Z,19.03
2018-11-06T10:07:11.600Z,19.03
2018-11-06T10:08:08.835Z,19.02
2018-11-06T10:09:08.699Z,19.03
2018-11-06T10:10:08.877Z,19.01
2018-11-06T10:11:09.047Z,19.05
2018-11-06T10:12:08.541Z,19.01
2018-11-06T10:13:08.580Z,19
2018-11-06T10:14:08.871Z,19
2018-11-06T10:15:08.897Z,18.98
2018-11-06T10:16:08.918Z,19.01
2018-11-06T10:17:08.872Z,19.01
2018-11-06T10:18:09.000Z,19.01
2018-11-06T10:19:08.455Z,19
2018-11-06T10:20:08.737Z,18.98
2018-11-06T10:21:08.669Z,18.94
2018-11-06T10:22:08.744Z,18.93
2018-11-06T10:23:08.684Z,18.94
2018-11-06T10:24:08.806Z,18.94
2018-11-06T10:25:08.859Z,18.92
2018-11-06T10:26:08.832Z,18.89
2018-11-06T10:27:08.984Z,18.88
2018-11-06T10:28:08.950Z,18.88
2018-11-06T10:29:08.780Z,18.88
2018-11-06T10:30:09.546Z,18.86
2018-11-06T10:31:08.782Z,18.85
2018-11-06T10:32:08.540Z,18.84
2018-11-06T10:33:08.444Z,18.84
2018-11-06T10:34:08.564Z,18.83
2018-11-06T10:35:08.687Z,18.79
2018-11-06T10:36:08.815Z,18.77
2018-11-06T10:37:08.391Z,18.79
2018-11-06T10:38:09.292Z,18.78
2018-11-06T10:39:08.586Z,18.77
2018-11-06T10:40:08.575Z,18.79
2018-11-06T10:41:08.592Z,18.77
2018-11-06T10:42:08.494Z,18.77
2018-11-06T10:43:08.510Z,18.79
2018-11-06T10:44:08.752Z,18.73
2018-11-06T10:45:08.782Z,18.73
2018-11-06T10:46:08.880Z,18.76
2018-11-06T10:47:08.781Z,18.76
2018-11-06T10:48:08.599Z,18.76
2018-11-06T10:49:08.641Z,18.79
2018-11-06T10:50:08.969Z,18.8
2018-11-06T10:51:08.621Z,18.81
2018-11-06T10:52:08.486Z,18.82
2018-11-06T10:53:09.033Z,18.81
2018-11-06T10:54:08.429Z,18.83
2018-11-06T10:55:08.682Z,18.84
2018-11-06T10:56:08.458Z,18.83
2018-11-06T10:57:08.487Z,18.84
2018-11-06T10:58:09.607Z,18.83
2018-11-06T10:59:08.510Z,18.84
2018-11-06T11:00:08.661Z,18.82
2018-11-06T11:01:08.896Z,18.85
2018-11-06T11:02:08.573Z,18.84
2018-11-06T11:03:08.513Z,18.83
2018-11-06T11:04:09.106Z,18.83
2018-11-06T11:05:08.673Z,18.84
2018-11-06T11:06:08.471Z,18.84
2018-11-06T11:07:08.829Z,18.86
2018-11-06T11:08:08.385Z,18.84
2018-11-06T11:09:08.757Z,18.85
2018-11-06T11:10:08.419Z,18.84
2018-11-06T11:11:08.501Z,18.86
2018-11-06T11:12:08.634Z,18.84
2018-11-06T11:13:08.473Z,18.85
2018-11-06T11:14:08.644Z,18.87
2018-11-06T11:15:08.565Z,18.86
2018-11-06T11:16:08.611Z,18.86
2018-11-06T11:17:08.683Z,18.86
2018-11-06T11:18:08.508Z,18.84
2018-11-06T11:19:08.367Z,18.85
2018-11-06T11:20:09.140Z,18.85
2018-11-06T11:21:08.686Z,18.86
2018-11-06T11:22:08.438Z,18.87
2018-11-06T11:23:08.570Z,18.87
2018-11-06T11:24:08.466Z,18.86
2018-11-06T11:25:08.665Z,18.88
2018-11-06T11:26:08.775Z,18.84
2018-11-06T11:27:08.690Z,18.86
2018-11-06T11:28:08.658Z,18.87
2018-11-06T11:29:08.536Z,18.86
2018-11-06T11:30:08.666Z,18.84
2018-11-06T11:31:08.417Z,18.84
2018-11-06T11:32:09.143Z,18.87
2018-11-06T11:33:08.473Z,18.86
2018-11-06T11:34:08.830Z,18.86
2018-11-06T11:35:08.712Z,18.84
2018-11-06T11:36:08.520Z,18.87
2018-11-06T11:37:08.840Z,18.86
2018-11-06T11:38:08.712Z,18.86
2018-11-06T11:39:08.764Z,18.87
2018-11-06T11:40:08.445Z,18.86
2018-11-06T11:41:08.917Z,18.87
2018-11-06T11:42:08.534Z,18.85
2018-11-06T11:43:08.700Z,18.87
2018-11-06T11:44:08.687Z,18.87
2018-11-06T11:45:08.407Z,18.85
2018-11-06T11:46:08.729Z,18.87
2018-11-06T11:47:08.926Z,18.86
2018-11-06T11:48:08.451Z,18.87
2018-11-06T11:49:08.640Z,18.87
2018-11-06T11:50:08.534Z,18.89
2018-11-06T11:51:08.523Z,18.87
2018-11-06T11:52:08.383Z,18.88
2018-11-06T11:53:08.609Z,18.88
2018-11-06T11:54:09.180Z,18.88
2018-11-06T11:55:08.464Z,18.88
2018-11-06T11:56:08.512Z,18.87
2018-11-06T11:57:08.540Z,18.87
2018-11-06T11:58:08.808Z,18.88
2018-11-06T11:59:08.482Z,18.87
2018-11-06T12:00:09.433Z,18.88
2018-11-06T12:01:08.710Z,18.88
2018-11-06T12:02:09.136Z,18.87
2018-11-06T12:03:08.749Z,18.88
2018-11-06T12:04:08.364Z,18.84
2018-11-06T12:05:08.749Z,18.88
2018-11-06T12:06:08.336Z,18.87
2018-11-06T12:07:08.607Z,18.87
2018-11-06T12:08:08.641Z,18.87
2018-11-06T12:09:08.412Z,18.88
2018-11-06T12:10:08.783Z,18.87
2018-11-06T12:11:08.377Z,18.87
2018-11-06T12:12:08.685Z,18.88
2018-11-06T12:13:08.428Z,18.88
2018-11-06T12:14:08.503Z,18.87
2018-11-06T12:15:09.256Z,18.88
2018-11-06T12:16:08.703Z,18.88
2018-11-06T12:17:08.651Z,18.89
2018-11-06T12:18:08.893Z,18.84
2018-11-06T12:19:08.854Z,18.89
2018-11-06T12:20:08.532Z,18.89
2018-11-06T12:21:08.480Z,18.87
2018-11-06T12:22:08.458Z,18.85
2018-11-06T12:23:08.766Z,18.89
2018-11-06T12:24:09.491Z,18.87
2018-11-06T12:25:10.679Z,18.87
2018-11-06T12:26:08.517Z,18.87
2018-11-06T12:27:08.428Z,18.86
2018-11-06T12:28:08.707Z,18.87
2018-11-06T12:29:08.624Z,18.87
2018-11-06T12:30:08.636Z,18.87
2018-11-06T12:31:08.416Z,18.88
2018-11-06T12:32:08.867Z,18.88
2018-11-06T12:33:08.537Z,18.86
2018-11-06T12:34:08.612Z,18.88
2018-11-06T12:35:08.461Z,18.87
2018-11-06T12:36:08.485Z,18.87
2018-11-06T12:37:09.397Z,18.87
2018-11-06T12:38:08.664Z,18.87
2018-11-06T12:39:08.763Z,18.89
2018-11-06T12:40:08.557Z,18.86
2018-11-06T12:41:08.523Z,18.86
2018-11-06T12:42:08.499Z,18.86
2018-11-06T12:43:10.103Z,18.88
2018-11-06T12:44:08.420Z,18.86
2018-11-06T12:45:08.500Z,18.88
2018-11-06T12:46:08.645Z,18.86
2018-11-06T12:47:08.405Z,18.88
2018-11-06T12:48:08.539Z,18.87
2018-11-06T12:49:08.362Z,18.88
2018-11-06T12:50:09.427Z,18.88
2018-11-06T12:51:08.389Z,18.88
2018-11-06T12:52:08.403Z,18.88
2018-11-06T12:53:08.597Z,18.87
2018-11-06T12:54:08.732Z,18.87